createdAt,value
2022-09-30T00:01:25.873Z,84.81
2022-09-30T00:03:54.498Z,87.05
2022-09-30T00:06:22.666Z,86.49
2022-09-30T00:08:50.195Z,84.77
2022-09-30T00:11:20.835Z,85.33
2022-09-30T00:13:50.555Z,86.33
2022-09-30T00:16:19.968Z,86.10
2022-09-30T00:18:47.492Z,85.95
2022-09-30T00:21:16.076Z,84.77
2022-09-30T00:23:44.852Z,84.42
2022-09-30T00:26:14.748Z,85.03
2022-09-30T00:28:42.869Z,84.76
2022-09-30T00:31:15.437Z,83.81
2022-09-30T00:33:43.358Z,85.71
2022-09-30T00:36:11.077Z,86.14
2022-09-30T00:38:38.423Z,84.82
2022-09-30T00:41:05.868Z,84.70
2022-09-30T00:43:46.646Z,85.09
2022-09-30T00:46:40.976Z,86.63
2022-09-30T00:49:29.767Z,86.13
2022-09-30T00:51:57.765Z,80.97
2022-09-30T00:54:29.793Z,82.50
2022-09-30T00:57:00.581Z,81.34
2022-09-30T00:59:34.904Z,82.01
2022-09-30T01:02:02.467Z,83.25
2022-09-30T01:04:31.985Z,81.95
2022-09-30T01:07:03.908Z,79.64
2022-09-30T01:09:33.014Z,79.40
2022-09-30T01:12:01.012Z,79.36
2022-09-30T01:14:28.692Z,80.47
2022-09-30T01:17:02.148Z,78.53
2022-09-30T01:19:29.358Z,78.82
2022-09-30T01:22:22.635Z,79.02
2022-09-30T01:25:23.727Z,79.62
2022-09-30T01:28:21.194Z,80.46
2022-09-30T01:31:08.267Z,83.26
2022-09-30T01:34:12.909Z,80.81
2022-09-30T01:37:17.576Z,85.00
2022-09-30T01:39:48.243Z,83.58
2022-09-30T01:42:50.743Z,83.85
2022-09-30T01:45:33.303Z,84.33
2022-09-30T01:48:06.422Z,84.47
2022-09-30T01:50:49.968Z,84.51
2022-09-30T01:53:26.993Z,85.53
2022-09-30T01:56:02.871Z,82.94
2022-09-30T01:58:38.542Z,84.59
2022-09-30T02:01:09.303Z,82.95
2022-09-30T02:03:50.082Z,85.12
2022-09-30T02:06:20.837Z,85.07
2022-09-30T02:08:56.683Z,83.37
2022-09-30T02:11:27.379Z,85.41
2022-09-30T02:14:20.687Z,84.30
2022-09-30T02:17:09.426Z,84.79
2022-09-30T02:19:48.703Z,85.88
2022-09-30T02:22:22.567Z,84.83
2022-09-30T02:24:54.588Z,83.99
2022-09-30T02:27:30.157Z,84.39
2022-09-30T02:29:59.492Z,87.51
2022-09-30T02:32:38.811Z,87.37
2022-09-30T02:35:10.312Z,87.63
2022-09-30T02:38:05.947Z,89.84
2022-09-30T02:40:45.309Z,90.22
2022-09-30T02:43:12.680Z,87.37
2022-09-30T02:45:49.380Z,85.35
2022-09-30T02:48:43.154Z,83.10
2022-09-30T02:51:29.904Z,85.07
2022-09-30T02:54:19.215Z,86.66
2022-09-30T02:57:00.033Z,88.60
2022-09-30T02:59:27.729Z,85.59
2022-09-30T03:01:55.425Z,86.42
2022-09-30T03:04:25.585Z,84.15
2022-09-30T03:06:53.091Z,83.73
2022-09-30T03:09:26.162Z,81.53
2022-09-30T03:12:15.501Z,81.87
2022-09-30T03:15:18.593Z,81.17
2022-09-30T03:17:45.780Z,83.37
2022-09-30T03:20:16.276Z,83.92
2022-09-30T03:23:11.403Z,84.97
2022-09-30T03:26:00.790Z,83.21
2022-09-30T03:28:33.178Z,80.62
2022-09-30T03:31:06.687Z,85.10
2022-09-30T03:33:44.795Z,86.28
2022-09-30T03:36:33.906Z,86.80
2022-09-30T03:39:05.222Z,87.48
2022-09-30T03:41:37.796Z,86.42
2022-09-30T03:44:28.093Z,85.16
2022-09-30T03:47:05.659Z,87.79
2022-09-30T03:49:39.776Z,91.34
2022-09-30T03:52:08.963Z,90.21
2022-09-30T03:54:46.177Z,90.27
2022-09-30T03:57:14.223Z,91.75
2022-09-30T03:59:41.541Z,93.36
2022-09-30T04:02:10.547Z,90.65
2022-09-30T04:04:38.186Z,89.61
2022-09-30T04:07:05.758Z,88.46
2022-09-30T04:09:33.128Z,87.18
2022-09-30T04:12:00.900Z,88.55
2022-09-30T04:14:28.245Z,89.50
2022-09-30T04:16:55.624Z,88.47
2022-09-30T04:19:23.283Z,87.60
2022-09-30T04:21:54.225Z,87.23
2022-09-30T04:24:22.673Z,88.32
2022-09-30T04:26:50.855Z,88.99
2022-09-30T04:29:18.222Z,90.22
2022-09-30T04:31:45.807Z,89.28
2022-09-30T04:34:13.404Z,89.72
2022-09-30T04:36:40.763Z,87.61
2022-09-30T04:39:08.093Z,90.36
2022-09-30T04:41:36.659Z,88.75
2022-09-30T04:44:07.830Z,87.00
2022-09-30T04:46:36.847Z,86.23
2022-09-30T04:49:08.771Z,86.59
2022-09-30T04:51:37.236Z,85.15
2022-09-30T04:54:04.930Z,87.18
2022-09-30T04:56:32.272Z,86.34
2022-09-30T04:58:59.604Z,86.75
2022-09-30T05:01:27.249Z,87.48
2022-09-30T05:03:55.041Z,86.19
2022-09-30T05:06:22.364Z,85.96
2022-09-30T05:08:49.976Z,89.56
2022-09-30T05:11:19.406Z,90.25
2022-09-30T05:13:47.780Z,91.92
2022-09-30T05:16:16.940Z,90.20
2022-09-30T05:18:46.184Z,88.79
2022-09-30T05:21:15.470Z,87.79
2022-09-30T05:23:43.130Z,90.16
2022-09-30T05:26:12.476Z,92.82
2022-09-30T05:28:41.796Z,91.32
2022-09-30T05:31:09.999Z,90.45
2022-09-30T05:33:37.402Z,91.95
2022-09-30T05:36:07.576Z,91.87
2022-09-30T05:38:35.556Z,89.50
2022-09-30T05:41:07.716Z,89.99
2022-09-30T05:43:38.208Z,92.52
2022-09-30T05:46:05.710Z,89.02
2022-09-30T05:48:33.101Z,90.38
2022-09-30T05:51:01.720Z,91.98
2022-09-30T05:53:31.241Z,92.86
2022-09-30T05:55:59.391Z,92.73
2022-09-30T05:58:27.587Z,92.27
2022-09-30T06:00:55.112Z,93.06
2022-09-30T06:03:23.110Z,90.84
2022-09-30T06:05:56.390Z,91.95
2022-09-30T06:08:24.456Z,91.68
2022-09-30T06:10:51.871Z,91.94
2022-09-30T06:13:20.704Z,92.79
2022-09-30T06:15:58.903Z,91.09
2022-09-30T06:18:27.529Z,92.20
2022-09-30T06:21:03.189Z,93.05
2022-09-30T06:23:32.361Z,92.13
2022-09-30T06:26:00.193Z,88.70
2022-09-30T06:28:28.135Z,88.17
2022-09-30T06:30:55.471Z,91.41
2022-09-30T06:33:23.091Z,90.43
2022-09-30T06:35:50.934Z,88.91
2022-09-30T06:38:18.383Z,84.06
2022-09-30T06:40:50.147Z,86.73
2022-09-30T06:43:20.978Z,86.16
2022-09-30T06:45:51.830Z,88.59
2022-09-30T06:48:32.749Z,85.44
2022-09-30T06:51:03.882Z,84.36
2022-09-30T06:53:31.183Z,80.19
2022-09-30T06:55:58.899Z,81.72
2022-09-30T06:58:26.866Z,82.14
2022-09-30T07:01:02.293Z,81.46
2022-09-30T07:03:32.842Z,81.82
2022-09-30T07:06:01.967Z,81.53
2022-09-30T07:08:31.754Z,81.79
2022-09-30T07:10:59.853Z,80.44
2022-09-30T07:13:27.204Z,81.46
2022-09-30T07:15:56.605Z,80.35
2022-09-30T07:18:24.550Z,79.92
2022-09-30T07:20:53.054Z,80.85
2022-09-30T07:23:25.831Z,82.00
2022-09-30T07:25:56.902Z,81.86
2022-09-30T07:28:31.559Z,81.86
2022-09-30T07:31:30.810Z,81.32
2022-09-30T07:33:51.343Z,81.14
2022-09-30T07:36:21.518Z,80.44
2022-09-30T07:38:51.959Z,81.38
2022-09-30T07:41:24.523Z,80.36
2022-09-30T07:43:51.860Z,80.06
2022-09-30T07:46:25.508Z,80.43
2022-09-30T07:48:56.670Z,81.16
2022-09-30T07:51:30.367Z,81.93
2022-09-30T07:54:00.765Z,80.59
2022-09-30T07:56:37.060Z,81.41
2022-09-30T07:59:17.171Z,82.18
2022-09-30T08:01:45.125Z,82.60
2022-09-30T08:04:13.389Z,81.23
2022-09-30T08:06:46.889Z,80.84
2022-09-30T08:09:16.195Z,82.48
2022-09-30T08:11:43.641Z,83.30
2022-09-30T08:14:15.979Z,82.35
2022-09-30T08:16:44.426Z,83.51
2022-09-30T08:19:19.950Z,80.59
2022-09-30T08:21:48.419Z,81.54
2022-09-30T08:24:16.073Z,81.96
2022-09-30T08:26:43.485Z,83.98
2022-09-30T08:29:19.969Z,82.22
2022-09-30T08:31:52.935Z,83.31
2022-09-30T08:34:21.315Z,85.55
2022-09-30T08:36:48.769Z,84.84
2022-09-30T08:39:16.154Z,83.47
2022-09-30T08:41:52.749Z,84.20
2022-09-30T08:44:23.947Z,85.54
2022-09-30T08:47:12.555Z,85.06
2022-09-30T08:49:51.789Z,85.71
2022-09-30T08:52:30.501Z,86.12
2022-09-30T08:55:18.716Z,85.61
2022-09-30T08:57:47.627Z,87.74
2022-09-30T09:00:17.947Z,86.22
2022-09-30T09:02:50.262Z,85.39
2022-09-30T09:05:28.183Z,86.11
2022-09-30T09:08:36.471Z,86.06
2022-09-30T09:11:16.658Z,85.29
2022-09-30T09:14:03.183Z,86.20
2022-09-30T09:16:55.681Z,85.93
2022-09-30T09:19:37.046Z,85.30
2022-09-30T09:22:04.402Z,84.48
2022-09-30T09:24:45.227Z,85.88
2022-09-30T09:27:18.129Z,84.71
2022-09-30T09:30:08.756Z,84.94
2022-09-30T09:32:36.571Z,83.31
2022-09-30T09:35:33.399Z,83.86
2022-09-30T09:38:19.068Z,84.77
2022-09-30T09:41:09.719Z,84.11
2022-09-30T09:44:08.014Z,84.62
2022-09-30T09:46:45.696Z,85.06
2022-09-30T09:49:24.159Z,83.82
2022-09-30T09:52:05.811Z,85.04
2022-09-30T09:54:36.111Z,85.42
2022-09-30T09:57:09.428Z,86.13
2022-09-30T09:59:39.388Z,86.18
2022-09-30T10:02:24.178Z,85.94
2022-09-30T10:05:00.107Z,84.68
2022-09-30T10:07:29.594Z,83.57
2022-09-30T10:10:07.800Z,83.97
2022-09-30T10:12:35.625Z,82.99
2022-09-30T10:15:15.434Z,84.18
2022-09-30T10:17:42.786Z,85.59
2022-09-30T10:20:16.453Z,85.40
2022-09-30T10:22:43.830Z,84.47
2022-09-30T10:25:14.143Z,83.69
2022-09-30T10:27:51.065Z,84.35
2022-09-30T10:30:38.713Z,82.96
2022-09-30T10:33:14.851Z,82.24
2022-09-30T10:35:54.700Z,81.99
2022-09-30T10:38:24.318Z,81.89
2022-09-30T10:40:52.153Z,82.33
2022-09-30T10:43:43.326Z,81.69
2022-09-30T10:46:25.724Z,81.58
2022-09-30T10:48:55.804Z,80.56
2022-09-30T10:51:29.997Z,80.98
2022-09-30T10:53:58.426Z,81.18
2022-09-30T10:56:33.954Z,80.55
2022-09-30T10:59:04.246Z,79.38
2022-09-30T11:01:46.619Z,78.86
2022-09-30T11:04:49.474Z,77.71
2022-09-30T11:07:23.299Z,76.81
2022-09-30T11:09:57.885Z,77.47
2022-09-30T11:13:04.192Z,76.67
2022-09-30T11:15:40.682Z,78.59
2022-09-30T11:18:11.283Z,79.14
2022-09-30T11:20:45.303Z,78.69
2022-09-30T11:23:32.886Z,77.64
2022-09-30T11:26:08.187Z,78.01
2022-09-30T11:28:57.538Z,75.56
2022-09-30T11:31:57.884Z,74.50
2022-09-30T11:34:37.917Z,75.49
2022-09-30T11:37:32.714Z,74.76
2022-09-30T11:40:19.364Z,75.56
2022-09-30T11:43:08.269Z,74.78
2022-09-30T11:45:54.963Z,72.96
2022-09-30T11:48:46.391Z,72.60
2022-09-30T11:51:27.483Z,72.83
2022-09-30T11:53:57.615Z,72.05
2022-09-30T11:56:37.685Z,72.81
2022-09-30T11:59:14.660Z,72.14
2022-09-30T12:01:47.488Z,72.94
2022-09-30T12:04:42.211Z,72.14
2022-09-30T12:07:17.943Z,72.32
2022-09-30T12:09:52.656Z,72.12
2022-09-30T12:12:20.473Z,72.97
2022-09-30T12:15:03.441Z,72.33
2022-09-30T12:17:37.894Z,74.51
2022-09-30T12:20:07.838Z,70.21
2022-09-30T12:22:59.067Z,69.45
2022-09-30T12:25:32.494Z,67.77
2022-09-30T12:28:36.580Z,68.11
2022-09-30T12:32:19.266Z,66.14
2022-09-30T12:35:09.653Z,64.75
2022-09-30T12:37:47.699Z,65.83
2022-09-30T12:40:20.970Z,65.40
2022-09-30T12:42:58.201Z,65.85
2022-09-30T12:45:56.596Z,69.27
2022-09-30T12:48:28.081Z,68.50
2022-09-30T12:50:57.976Z,71.40
2022-09-30T12:53:37.991Z,68.76
2022-09-30T12:56:14.422Z,69.19
2022-09-30T12:58:44.348Z,68.54
2022-09-30T13:01:15.838Z,68.35
2022-09-30T13:04:06.404Z,67.45
2022-09-30T13:06:46.451Z,67.85
2022-09-30T13:09:16.770Z,69.05
2022-09-30T13:11:49.115Z,67.94
2022-09-30T13:14:36.278Z,69.22
2022-09-30T13:17:06.814Z,69.08
2022-09-30T13:19:41.125Z,71.74
2022-09-30T13:22:20.974Z,72.68
2022-09-30T13:24:57.818Z,70.71
2022-09-30T13:27:55.482Z,69.72
2022-09-30T13:30:24.266Z,70.56
2022-09-30T13:32:57.676Z,70.44
2022-09-30T13:35:37.655Z,70.79
2022-09-30T13:38:17.722Z,71.25
2022-09-30T13:41:02.255Z,69.54
2022-09-30T13:43:33.491Z,70.89
2022-09-30T13:46:07.250Z,71.08
2022-09-30T13:48:36.756Z,70.16
2022-09-30T13:51:08.923Z,70.60
2022-09-30T13:53:48.291Z,71.18
2022-09-30T13:56:25.888Z,70.83
2022-09-30T13:59:18.788Z,70.17
2022-09-30T14:01:56.501Z,70.03
2022-09-30T14:04:47.432Z,69.21
2022-09-30T14:07:40.083Z,70.59
2022-09-30T14:10:13.031Z,67.82
2022-09-30T14:13:06.126Z,68.66
2022-09-30T14:15:44.258Z,70.51
2022-09-30T14:18:50.666Z,69.01
2022-09-30T14:21:57.189Z,67.27
2022-09-30T14:24:24.425Z,66.47
2022-09-30T14:26:58.086Z,67.77
2022-09-30T14:29:31.724Z,68.72
2022-09-30T14:31:59.975Z,67.43
2022-09-30T14:34:27.835Z,67.16
2022-09-30T14:36:55.407Z,68.23
2022-09-30T14:39:28.273Z,66.65
2022-09-30T14:41:58.681Z,67.57
2022-09-30T14:44:28.508Z,67.21
2022-09-30T14:47:01.442Z,67.44
2022-09-30T14:49:36.166Z,68.17
2022-09-30T14:52:04.321Z,68.33
2022-09-30T14:54:33.106Z,67.05
2022-09-30T14:57:02.341Z,67.99
2022-09-30T14:59:32.242Z,68.17
2022-09-30T15:02:20.324Z,67.79
2022-09-30T15:04:50.927Z,68.07
2022-09-30T15:07:18.669Z,68.27
2022-09-30T15:09:47.771Z,68.36
2022-09-30T15:12:19.977Z,69.19
2022-09-30T15:14:58.707Z,69.88
2022-09-30T15:17:27.196Z,69.08
2022-09-30T15:19:56.348Z,67.97
2022-09-30T15:22:26.369Z,68.42
2022-09-30T15:24:54.185Z,68.04
2022-09-30T15:27:25.174Z,67.92
2022-09-30T15:29:59.840Z,68.09
2022-09-30T15:32:30.019Z,67.93
2022-09-30T15:34:58.730Z,67.69
2022-09-30T15:37:33.716Z,67.64
2022-09-30T15:40:20.883Z,67.53
2022-09-30T15:42:56.132Z,67.95
2022-09-30T15:45:38.607Z,68.61
2022-09-30T15:48:25.679Z,67.95
2022-09-30T15:50:54.302Z,68.82
2022-09-30T15:53:32.449Z,68.58
2022-09-30T15:56:00.490Z,68.56
2022-09-30T15:58:37.594Z,68.56
2022-09-30T16:01:22.171Z,68.81
2022-09-30T16:03:56.593Z,68.89
2022-09-30T16:06:32.853Z,68.90
2022-09-30T16:09:08.491Z,69.66
2022-09-30T16:11:41.924Z,70.20
2022-09-30T16:14:19.439Z,68.70
2022-09-30T16:16:55.547Z,68.43
2022-09-30T16:19:24.600Z,68.34
2022-09-30T16:21:54.683Z,68.28
2022-09-30T16:24:24.972Z,68.32
2022-09-30T16:26:57.086Z,68.47
2022-09-30T16:29:29.072Z,68.73
2022-09-30T16:31:56.953Z,68.88
2022-09-30T16:34:26.486Z,69.08
2022-09-30T16:36:55.878Z,70.47
2022-09-30T16:39:23.583Z,70.53
2022-09-30T16:41:52.385Z,69.65
2022-09-30T16:44:19.886Z,69.51
2022-09-30T16:46:47.563Z,70.21
2022-09-30T16:49:17.127Z,70.29
2022-09-30T16:51:44.703Z,70.17
2022-09-30T16:54:12.978Z,69.67
2022-09-30T16:56:40.299Z,69.34
2022-09-30T16:59:13.424Z,70.16
2022-09-30T17:01:41.487Z,69.65
2022-09-30T17:04:11.046Z,70.38
2022-09-30T17:06:41.548Z,69.37
2022-09-30T17:09:08.863Z,69.22
2022-09-30T17:11:37.957Z,70.38
2022-09-30T17:14:05.943Z,70.55
2022-09-30T17:16:34.338Z,70.65
2022-09-30T17:19:01.966Z,69.83
2022-09-30T17:21:34.962Z,69.74
2022-09-30T17:24:02.602Z,69.57
2022-09-30T17:26:30.419Z,70.05
2022-09-30T17:29:14.626Z,71.98
2022-09-30T17:31:46.580Z,71.42
2022-09-30T17:34:13.927Z,70.18
2022-09-30T17:36:41.786Z,69.72
2022-09-30T17:39:11.383Z,69.57
2022-09-30T17:41:57.447Z,70.34
2022-09-30T17:44:26.345Z,70.44
2022-09-30T17:47:00.189Z,70.01
2022-09-30T17:49:32.618Z,71.37
2022-09-30T17:52:00.657Z,71.43
2022-09-30T17:54:28.917Z,70.60
2022-09-30T17:56:57.297Z,70.55
2022-09-30T17:59:26.032Z,70.53
2022-09-30T18:01:56.568Z,71.45
2022-09-30T18:04:27.370Z,71.79
2022-09-30T18:06:55.505Z,70.81
2022-09-30T18:09:23.308Z,70.99
2022-09-30T18:11:50.928Z,71.71
2022-09-30T18:14:18.251Z,71.66
2022-09-30T18:16:45.831Z,71.11
2022-09-30T18:21:45.802Z,71.20
2022-09-30T18:24:13.182Z,72.56
2022-09-30T18:26:40.799Z,72.87
2022-09-30T18:29:08.176Z,71.89
2022-09-30T18:31:37.433Z,69.68
2022-09-30T18:34:06.474Z,70.16
2022-09-30T18:36:34.009Z,71.86
2022-09-30T18:39:02.270Z,73.27
2022-09-30T18:41:33.782Z,72.67
2022-09-30T18:44:03.035Z,70.77
2022-09-30T18:46:31.642Z,72.25
2022-09-30T18:48:59.388Z,73.88
2022-09-30T18:51:26.827Z,74.19
2022-09-30T18:54:00.028Z,74.47
2022-09-30T18:56:32.605Z,72.71
2022-09-30T18:59:01.425Z,72.28
2022-09-30T19:01:28.957Z,71.20
2022-09-30T19:03:56.402Z,70.99
2022-09-30T19:06:32.144Z,71.64
2022-09-30T19:08:59.549Z,72.13
2022-09-30T19:11:30.389Z,74.45
2022-09-30T19:13:58.780Z,74.17
2022-09-30T19:16:26.993Z,73.57
2022-09-30T19:18:55.438Z,72.37
2022-09-30T19:21:23.104Z,72.90
2022-09-30T19:23:50.469Z,72.86
2022-09-30T19:26:18.069Z,73.22
2022-09-30T19:28:45.643Z,73.99
2022-09-30T19:31:17.046Z,78.99
2022-09-30T19:33:55.890Z,79.77
2022-09-30T19:36:25.457Z,76.67
2022-09-30T19:39:05.237Z,78.08
2022-09-30T19:41:36.039Z,78.31
2022-09-30T19:44:03.807Z,78.70
2022-09-30T19:46:31.151Z,77.67
2022-09-30T19:48:58.535Z,75.52
2022-09-30T19:51:31.176Z,76.57
2022-09-30T19:54:06.253Z,75.62
2022-09-30T19:56:37.122Z,76.22
2022-09-30T19:59:05.047Z,75.62
2022-09-30T20:01:35.112Z,75.77
2022-09-30T20:04:05.313Z,75.64
2022-09-30T20:06:34.135Z,75.34
2022-09-30T20:09:04.634Z,75.78
2022-09-30T20:11:37.076Z,74.77
2022-09-30T20:14:26.190Z,74.27
2022-09-30T20:16:54.356Z,72.96
2022-09-30T20:19:22.990Z,72.97
2022-09-30T20:21:51.778Z,75.17
2022-09-30T20:24:19.634Z,76.50
2022-09-30T20:26:47.600Z,74.30
2022-09-30T20:29:15.332Z,73.89
2022-09-30T20:31:43.292Z,74.48
2022-09-30T20:34:12.831Z,73.35
2022-09-30T20:36:40.591Z,75.09
2022-09-30T20:39:09.677Z,75.17
2022-09-30T20:41:38.130Z,75.20
2022-09-30T20:44:07.542Z,76.58
2022-09-30T20:46:35.294Z,77.43
2022-09-30T20:49:02.984Z,76.94
2022-09-30T20:51:31.130Z,75.81
2022-09-30T20:54:00.145Z,76.32
2022-09-30T20:56:44.095Z,76.35
2022-09-30T20:59:17.197Z,75.40
2022-09-30T21:01:44.652Z,75.73
2022-09-30T21:04:12.097Z,74.04
2022-09-30T21:06:39.702Z,75.57
2022-09-30T21:09:07.028Z,77.12
2022-09-30T21:11:34.723Z,74.86
2022-09-30T21:14:02.500Z,74.40
2022-09-30T21:16:29.934Z,74.75
2022-09-30T21:18:57.267Z,75.30
2022-09-30T21:21:26.798Z,74.74
2022-09-30T21:23:58.775Z,76.08
2022-09-30T21:26:26.889Z,78.47
2022-09-30T21:28:54.537Z,77.04
2022-09-30T21:31:24.824Z,76.38
2022-09-30T21:33:58.403Z,74.77
2022-09-30T21:36:27.226Z,75.76
2022-09-30T21:38:55.052Z,74.14
2022-09-30T21:41:22.878Z,72.72
2022-09-30T21:43:50.195Z,76.55
2022-09-30T21:46:18.701Z,80.52
2022-09-30T21:48:46.201Z,84.72
2022-09-30T21:51:13.906Z,80.80
2022-09-30T21:53:41.708Z,79.88
2022-09-30T21:56:11.606Z,81.34
2022-09-30T21:58:39.229Z,80.59
2022-09-30T22:01:07.394Z,80.07
2022-09-30T22:03:38.452Z,81.53
2022-09-30T22:06:07.538Z,80.56
2022-09-30T22:08:40.209Z,78.35
2022-09-30T22:11:11.245Z,81.54
2022-09-30T22:13:40.809Z,79.35
2022-09-30T22:16:08.741Z,79.18
2022-09-30T22:18:36.291Z,79.93
2022-09-30T22:21:06.260Z,80.67
2022-09-30T22:23:33.551Z,80.64
2022-09-30T22:26:08.859Z,80.97
2022-09-30T22:28:37.549Z,80.14
2022-09-30T22:31:19.446Z,79.32
2022-09-30T22:34:06.904Z,77.58
2022-09-30T22:36:53.547Z,76.10
2022-09-30T22:39:21.363Z,76.74
2022-09-30T22:41:50.230Z,76.00
2022-09-30T22:44:17.741Z,75.20
2022-09-30T22:46:45.383Z,77.27
2022-09-30T22:49:12.804Z,81.84
2022-09-30T22:51:40.105Z,82.22
2022-09-30T22:54:07.933Z,82.79
2022-09-30T22:56:35.273Z,82.90
2022-09-30T22:59:02.563Z,81.45
2022-09-30T23:01:31.870Z,79.95
2022-09-30T23:03:59.644Z,78.44
2022-09-30T23:06:27.000Z,78.49
2022-09-30T23:08:55.626Z,76.41
2022-09-30T23:11:23.343Z,77.40
2022-09-30T23:13:52.563Z,76.77
2022-09-30T23:16:22.188Z,77.29
2022-09-30T23:18:49.599Z,79.20
2022-09-30T23:21:18.514Z,79.51
2022-09-30T23:23:48.327Z,78.89
2022-09-30T23:26:21.246Z,79.11
2022-09-30T23:28:49.292Z,81.92
2022-09-30T23:31:17.227Z,80.29
2022-09-30T23:33:49.617Z,85.32
2022-09-30T23:36:19.707Z,87.88
2022-09-30T23:38:47.151Z,88.50
2022-09-30T23:41:14.502Z,86.58
2022-09-30T23:43:48.376Z,85.08
2022-09-30T23:46:17.308Z,82.36
2022-09-30T23:48:45.933Z,82.82
2022-09-30T23:51:15.417Z,85.62
2022-09-30T23:53:42.809Z,83.31
2022-09-30T23:56:15.609Z,86.52
2022-09-30T23:58:45.996Z,87.34
